utilisation pie
utilisation bar
humidity graph
temperature graph
Station id: aae83c for 2 days

start:   stop:  

day time in temp out temp in RH out RH H quota rule action
2020-12-04 00:03:56 10.4 3.4 59 90 97 h 0
2020-12-04 00:34:09 10.7 3.5 58 89 96 h 0
2020-12-04 01:04:21 11.2 3.6 56 88 95 h 0
2020-12-04 01:34:33 10.6 3.5 58 89 96 h 0
2020-12-04 02:04:45 10.3 3.2 59 91 97 h 0
2020-12-04 02:34:57 10.0 3.0 59 92 97 h 0
2020-12-04 03:05:09 9.8 2.9 60 93 98 h 0
2020-12-04 03:35:22 9.6 2.9 60 93 99 h 0
2020-12-04 04:05:34 9.4 3.0 61 94 101 h 0
2020-12-04 04:35:46 9.3 3.1 61 94 102 h 0
2020-12-04 05:05:58 10.4 3.3 58 94 101 h 0
2020-12-04 05:36:10 10.2 3.4 59 95 103 h 0
2020-12-04 06:06:23 9.7 3.6 60 95 105 h 0
2020-12-04 06:36:49 9.3 3.8 62 95 107 h 0
2020-12-04 07:07:01 9.1 4.0 62 95 108 h 0
2020-12-04 07:37:13 9.0 4.1 63 94 108 h 0
2020-12-04 08:07:25 8.9 4.1 63 94 109 h 0
2020-12-04 08:37:38 8.8 4.2 63 94 109 h 0
2020-12-04 09:07:51 8.7 4.3 64 94 110 h 0
2020-12-04 09:38:04 8.6 4.3 64 95 111 h 0
2020-12-04 10:08:16 8.5 4.3 64 94 110 h 0
2020-12-04 10:38:28 9.5 4.4 61 95 111 h 0
2020-12-04 11:08:40 10.1 4.5 59 95 112 h 0
2020-12-04 11:38:52 9.4 4.5 61 95 113 h 0
2020-12-04 12:09:05 8.9 4.6 63 95 114 h 0
2020-12-04 12:39:17 8.7 4.6 63 95 114 h 0
2020-12-04 13:09:29 8.5 4.5 64 95 113 h 0
2020-12-04 13:39:41 8.5 4.5 64 95 114 h 0
2020-12-04 14:09:53 8.4 4.4 64 94 112 h 0
2020-12-04 14:40:05 8.3 4.3 65 94 111 h 0
2020-12-04 15:10:18 8.2 4.2 65 95 112 h 0
2020-12-04 15:40:30 8.2 4.1 65 95 111 h 0
2020-12-04 16:10:42 8.2 4.0 65 95 110 h 0
2020-12-04 16:40:55 8.1 3.8 65 94 108 h 0
2020-12-04 17:11:07 8.1 3.7 65 94 107 h 0
2020-12-04 17:41:19 8.0 3.8 65 95 110 h 0
2020-12-04 18:11:31 8.2 4.0 64 95 111 h 0
2020-12-04 18:41:43 9.9 4.3 59 96 113 h 0
2020-12-04 19:11:55 9.1 4.6 61 96 116 h 0
2020-12-04 19:42:08 8.6 4.8 63 96 118 h 0
2020-12-04 20:12:20 8.5 5.0 64 96 120 h 0
2020-12-04 20:42:32 8.3 5.1 64 96 121 h 0
2020-12-04 21:12:45 8.2 5.2 65 96 121 h 0
2020-12-04 21:42:57 8.1 5.3 65 96 122 h 0
2020-12-04 22:13:09 8.1 5.4 65 96 123 h 0
2020-12-04 22:43:21 8.0 5.6 66 96 125 h 0
2020-12-04 23:13:33 8.0 5.6 66 96 125 h 0
2020-12-04 23:43:46 7.9 5.7 66 96 125 h 0
2020-12-05 00:13:58 7.9 5.8 66 96 126 h 0
2020-12-05 00:44:10 7.9 5.8 66 96 126 h 0
2020-12-05 01:14:22 7.9 5.8 66 96 126 h 0
2020-12-05 01:44:34 7.9 5.8 66 96 126 h 0
2020-12-05 02:14:46 7.9 5.7 66 96 125 h 0
2020-12-05 02:44:59 7.9 5.7 66 96 125 h 0
2020-12-05 03:15:11 7.9 5.8 66 96 126 h 0
2020-12-05 03:45:23 8.0 5.8 66 96 125 h 0
2020-12-05 04:15:35 9.8 5.9 60 96 124 h 0
2020-12-05 04:45:47 9.2 5.9 62 96 126 h 0
2020-12-05 05:15:59 8.7 6.0 63 96 127 h 0
2020-12-05 05:46:11 8.4 6.0 64 96 127 h 0
2020-12-05 06:16:23 8.2 6.1 65 96 128 h 0
2020-12-05 06:46:36 8.2 6.0 65 96 127 h 0
2020-12-05 07:16:56 8.1 6.0 66 96 127 h 0
2020-12-05 07:47:08 8.0 6.1 66 96 128 h 0
2020-12-05 08:17:20 8.0 6.1 66 96 128 h 0
2020-12-05 08:47:38 7.9 6.2 66 96 129 h 0
2020-12-05 09:17:50 7.9 6.2 66 95 128 h 0
2020-12-05 09:48:03 7.9 6.2 67 96 129 h 0
2020-12-05 10:18:15 7.9 6.3 67 96 130 h 0
2020-12-05 10:48:27 7.9 6.4 67 95 129 h 0
2020-12-05 11:18:39 7.9 6.5 67 95 130 h 0
2020-12-05 11:48:56 7.9 6.6 67 95 131 h 0
2020-12-05 12:19:08 7.9 6.6 67 95 131 h 0
2020-12-05 12:49:20 7.9 6.7 67 94 130 h 0
2020-12-05 13:19:33 7.8 6.7 67 94 130 h 0
2020-12-05 13:49:45 8.2 6.7 66 94 129 h 0
2020-12-05 14:19:57 9.9 6.7 60 95 129 h 0
2020-12-05 14:50:09 9.1 6.6 62 95 130 h 0


2020-12-05 15:24:31 CET